sensor_id;sensor_type;location;lat;lon;timestamp;P1;durP1;ratioP1;P2;durP2;ratioP2
80891;SDS011;70343;51.530;5.050;2024-01-30T00:00:32;11.05;;;7.95;;
80891;SDS011;70343;51.530;5.050;2024-01-30T00:02:57;12.55;;;6.60;;
80891;SDS011;70343;51.530;5.050;2024-01-30T00:05:23;11.48;;;8.57;;
80891;SDS011;70343;51.530;5.050;2024-01-30T00:07:48;11.18;;;6.78;;
80891;SDS011;70343;51.530;5.050;2024-01-30T00:10:14;12.05;;;7.72;;
80891;SDS011;70343;51.530;5.050;2024-01-30T00:12:39;12.68;;;7.90;;
80891;SDS011;70343;51.530;5.050;2024-01-30T00:15:05;13.73;;;7.72;;
80891;SDS011;70343;51.530;5.050;2024-01-30T00:17:33;10.07;;;6.88;;
80891;SDS011;70343;51.530;5.050;2024-01-30T00:19:59;10.40;;;7.65;;
80891;SDS011;70343;51.530;5.050;2024-01-30T00:22:24;11.65;;;7.15;;
80891;SDS011;70343;51.530;5.050;2024-01-30T00:24:50;11.75;;;7.63;;
80891;SDS011;70343;51.530;5.050;2024-01-30T00:27:15;10.80;;;7.47;;
80891;SDS011;70343;51.530;5.050;2024-01-30T00:29:41;9.48;;;7.28;;
80891;SDS011;70343;51.530;5.050;2024-01-30T00:32:06;11.35;;;6.60;;
80891;SDS011;70343;51.530;5.050;2024-01-30T00:34:32;10.82;;;7.70;;
80891;SDS011;70343;51.530;5.050;2024-01-30T00:36:57;13.93;;;8.68;;
80891;SDS011;70343;51.530;5.050;2024-01-30T00:39:23;13.48;;;7.47;;
80891;SDS011;70343;51.530;5.050;2024-01-30T00:41:48;11.70;;;6.57;;
80891;SDS011;70343;51.530;5.050;2024-01-30T00:44:14;11.38;;;7.18;;
80891;SDS011;70343;51.530;5.050;2024-01-30T00:46:39;11.63;;;7.68;;
80891;SDS011;70343;51.530;5.050;2024-01-30T00:49:05;12.00;;;8.10;;
80891;SDS011;70343;51.530;5.050;2024-01-30T00:51:30;12.02;;;7.30;;
80891;SDS011;70343;51.530;5.050;2024-01-30T00:53:56;12.85;;;7.55;;
80891;SDS011;70343;51.530;5.050;2024-01-30T00:56:21;12.57;;;6.80;;
80891;SDS011;70343;51.530;5.050;2024-01-30T00:58:47;9.88;;;6.18;;
80891;SDS011;70343;51.530;5.050;2024-01-30T01:01:12;11.68;;;7.05;;
80891;SDS011;70343;51.530;5.050;2024-01-30T01:03:38;10.02;;;6.70;;
80891;SDS011;70343;51.530;5.050;2024-01-30T01:06:05;13.02;;;7.68;;
80891;SDS011;70343;51.530;5.050;2024-01-30T01:08:31;9.98;;;6.30;;
80891;SDS011;70343;51.530;5.050;2024-01-30T01:10:56;9.43;;;6.60;;
80891;SDS011;70343;51.530;5.050;2024-01-30T01:13:22;13.35;;;7.40;;
80891;SDS011;70343;51.530;5.050;2024-01-30T01:15:47;10.68;;;6.00;;
80891;SDS011;70343;51.530;5.050;2024-01-30T01:18:13;10.40;;;6.78;;
80891;SDS011;70343;51.530;5.050;2024-01-30T01:20:38;12.20;;;6.25;;
80891;SDS011;70343;51.530;5.050;2024-01-30T01:23:04;10.40;;;6.43;;
80891;SDS011;70343;51.530;5.050;2024-01-30T01:25:29;10.52;;;6.72;;
80891;SDS011;70343;51.530;5.050;2024-01-30T01:27:54;8.30;;;5.97;;
80891;SDS011;70343;51.530;5.050;2024-01-30T01:30:20;12.90;;;6.18;;
80891;SDS011;70343;51.530;5.050;2024-01-30T01:32:50;8.43;;;6.10;;
80891;SDS011;70343;51.530;5.050;2024-01-30T01:35:23;10.02;;;6.43;;
80891;SDS011;70343;51.530;5.050;2024-01-30T01:37:54;9.80;;;5.97;;
80891;SDS011;70343;51.530;5.050;2024-01-30T01:40:21;9.90;;;6.47;;
80891;SDS011;70343;51.530;5.050;2024-01-30T01:42:49;8.65;;;6.88;;
80891;SDS011;70343;51.530;5.050;2024-01-30T01:45:17;11.25;;;6.80;;
80891;SDS011;70343;51.530;5.050;2024-01-30T01:47:43;10.10;;;5.60;;
80891;SDS011;70343;51.530;5.050;2024-01-30T01:50:12;10.82;;;5.53;;
80891;SDS011;70343;51.530;5.050;2024-01-30T01:52:47;8.88;;;5.82;;
80891;SDS011;70343;51.530;5.050;2024-01-30T01:55:13;8.52;;;6.10;;
80891;SDS011;70343;51.530;5.050;2024-01-30T01:57:41;12.15;;;6.35;;
80891;SDS011;70343;51.530;5.050;2024-01-30T02:00:08;7.63;;;5.18;;
80891;SDS011;70343;51.530;5.050;2024-01-30T02:02:35;8.27;;;6.32;;
80891;SDS011;70343;51.530;5.050;2024-01-30T02:05:01;11.13;;;6.30;;
80891;SDS011;70343;51.530;5.050;2024-01-30T02:07:27;9.90;;;6.38;;
80891;SDS011;70343;51.530;5.050;2024-01-30T02:09:53;11.20;;;6.18;;
80891;SDS011;70343;51.530;5.050;2024-01-30T02:12:19;9.57;;;5.85;;
80891;SDS011;70343;51.530;5.050;2024-01-30T02:14:45;8.90;;;7.25;;
80891;SDS011;70343;51.530;5.050;2024-01-30T02:17:12;9.82;;;5.18;;
80891;SDS011;70343;51.530;5.050;2024-01-30T02:19:38;8.88;;;5.63;;
80891;SDS011;70343;51.530;5.050;2024-01-30T02:22:04;6.88;;;4.85;;
80891;SDS011;70343;51.530;5.050;2024-01-30T02:24:30;9.32;;;5.03;;
80891;SDS011;70343;51.530;5.050;2024-01-30T02:26:55;6.55;;;5.15;;
80891;SDS011;70343;51.530;5.050;2024-01-30T02:29:21;9.95;;;5.70;;
80891;SDS011;70343;51.530;5.050;2024-01-30T02:31:46;8.75;;;5.60;;
80891;SDS011;70343;51.530;5.050;2024-01-30T02:34:12;9.57;;;6.38;;
80891;SDS011;70343;51.530;5.050;2024-01-30T02:36:38;10.23;;;6.43;;
80891;SDS011;70343;51.530;5.050;2024-01-30T02:39:07;9.55;;;5.60;;
80891;SDS011;70343;51.530;5.050;2024-01-30T02:41:33;9.60;;;6.82;;
80891;SDS011;70343;51.530;5.050;2024-01-30T02:43:58;9.60;;;5.82;;
80891;SDS011;70343;51.530;5.050;2024-01-30T02:46:24;7.30;;;5.40;;
80891;SDS011;70343;51.530;5.050;2024-01-30T02:48:49;8.15;;;5.60;;
80891;SDS011;70343;51.530;5.050;2024-01-30T02:51:15;9.32;;;5.50;;
80891;SDS011;70343;51.530;5.050;2024-01-30T02:53:42;7.80;;;5.88;;
80891;SDS011;70343;51.530;5.050;2024-01-30T02:56:07;10.32;;;4.82;;
80891;SDS011;70343;51.530;5.050;2024-01-30T02:58:37;11.23;;;6.25;;
80891;SDS011;70343;51.530;5.050;2024-01-30T03:01:04;9.50;;;5.57;;
80891;SDS011;70343;51.530;5.050;2024-01-30T03:03:30;10.43;;;5.35;;
80891;SDS011;70343;51.530;5.050;2024-01-30T03:05:55;9.45;;;6.13;;
80891;SDS011;70343;51.530;5.050;2024-01-30T03:08:21;9.05;;;6.07;;
80891;SDS011;70343;51.530;5.050;2024-01-30T03:10:46;7.75;;;5.65;;
80891;SDS011;70343;51.530;5.050;2024-01-30T03:13:12;7.70;;;4.70;;
80891;SDS011;70343;51.530;5.050;2024-01-30T03:15:37;10.77;;;5.65;;
80891;SDS011;70343;51.530;5.050;2024-01-30T03:18:03;8.35;;;5.90;;
80891;SDS011;70343;51.530;5.050;2024-01-30T03:20:31;8.13;;;5.45;;
80891;SDS011;70343;51.530;5.050;2024-01-30T03:22:57;7.43;;;5.57;;
80891;SDS011;70343;51.530;5.050;2024-01-30T03:25:25;13.63;;;5.70;;
80891;SDS011;70343;51.530;5.050;2024-01-30T03:27:50;8.95;;;5.25;;
80891;SDS011;70343;51.530;5.050;2024-01-30T03:30:16;9.45;;;5.13;;
80891;SDS011;70343;51.530;5.050;2024-01-30T03:32:42;10.25;;;5.90;;
80891;SDS011;70343;51.530;5.050;2024-01-30T03:35:08;6.90;;;4.93;;
80891;SDS011;70343;51.530;5.050;2024-01-30T03:37:33;8.38;;;5.63;;
80891;SDS011;70343;51.530;5.050;2024-01-30T03:39:59;7.68;;;5.10;;
80891;SDS011;70343;51.530;5.050;2024-01-30T03:42:24;11.07;;;5.40;;
80891;SDS011;70343;51.530;5.050;2024-01-30T03:44:50;8.80;;;4.95;;
80891;SDS011;70343;51.530;5.050;2024-01-30T03:47:20;9.98;;;5.10;;
80891;SDS011;70343;51.530;5.050;2024-01-30T03:49:46;8.20;;;5.18;;
80891;SDS011;70343;51.530;5.050;2024-01-30T03:52:11;9.32;;;5.60;;
80891;SDS011;70343;51.530;5.050;2024-01-30T03:54:37;7.45;;;4.78;;
80891;SDS011;70343;51.530;5.050;2024-01-30T03:57:03;8.70;;;5.57;;
80891;SDS011;70343;51.530;5.050;2024-01-30T03:59:28;10.23;;;5.65;;
80891;SDS011;70343;51.530;5.050;2024-01-30T04:01:54;9.48;;;5.47;;
80891;SDS011;70343;51.530;5.050;2024-01-30T04:04:20;8.27;;;5.50;;
80891;SDS011;70343;51.530;5.050;2024-01-30T04:06:45;9.48;;;6.28;;
80891;SDS011;70343;51.530;5.050;2024-01-30T04:09:12;8.27;;;5.25;;
80891;SDS011;70343;51.530;5.050;2024-01-30T04:11:38;7.25;;;5.68;;
80891;SDS011;70343;51.530;5.050;2024-01-30T04:14:04;6.80;;;5.00;;
80891;SDS011;70343;51.530;5.050;2024-01-30T04:16:29;9.50;;;5.57;;
80891;SDS011;70343;51.530;5.050;2024-01-30T04:18:55;10.55;;;5.07;;
80891;SDS011;70343;51.530;5.050;2024-01-30T04:21:21;7.93;;;5.30;;
80891;SDS011;70343;51.530;5.050;2024-01-30T04:23:47;9.35;;;5.90;;
80891;SDS011;70343;51.530;5.050;2024-01-30T04:26:13;10.63;;;5.25;;
80891;SDS011;70343;51.530;5.050;2024-01-30T04:28:44;9.63;;;5.03;;
80891;SDS011;70343;51.530;5.050;2024-01-30T04:31:09;9.13;;;6.30;;
80891;SDS011;70343;51.530;5.050;2024-01-30T04:33:35;8.88;;;5.45;;
80891;SDS011;70343;51.530;5.050;2024-01-30T04:36:01;8.82;;;5.93;;
80891;SDS011;70343;51.530;5.050;2024-01-30T04:38:26;8.73;;;5.97;;
80891;SDS011;70343;51.530;5.050;2024-01-30T04:40:52;9.05;;;5.63;;
80891;SDS011;70343;51.530;5.050;2024-01-30T04:43:17;9.60;;;6.03;;
80891;SDS011;70343;51.530;5.050;2024-01-30T04:45:44;7.68;;;5.57;;
80891;SDS011;70343;51.530;5.050;2024-01-30T04:48:09;6.43;;;5.13;;
80891;SDS011;70343;51.530;5.050;2024-01-30T04:50:35;10.40;;;5.93;;
80891;SDS011;70343;51.530;5.050;2024-01-30T04:53:01;7.80;;;5.70;;
80891;SDS011;70343;51.530;5.050;2024-01-30T04:55:26;10.25;;;5.88;;
80891;SDS011;70343;51.530;5.050;2024-01-30T04:57:52;7.35;;;5.50;;
80891;SDS011;70343;51.530;5.050;2024-01-30T05:00:17;9.27;;;6.40;;
80891;SDS011;70343;51.530;5.050;2024-01-30T05:02:43;11.80;;;5.90;;
80891;SDS011;70343;51.530;5.050;2024-01-30T05:05:08;11.40;;;6.70;;
80891;SDS011;70343;51.530;5.050;2024-01-30T05:07:34;12.07;;;6.63;;
80891;SDS011;70343;51.530;5.050;2024-01-30T05:09:59;11.35;;;6.07;;
80891;SDS011;70343;51.530;5.050;2024-01-30T05:12:25;9.20;;;5.82;;
80891;SDS011;70343;51.530;5.050;2024-01-30T05:14:51;8.80;;;5.90;;
80891;SDS011;70343;51.530;5.050;2024-01-30T05:17:17;10.40;;;6.20;;
80891;SDS011;70343;51.530;5.050;2024-01-30T05:19:43;7.00;;;4.68;;
80891;SDS011;70343;51.530;5.050;2024-01-30T05:22:08;8.43;;;5.55;;
80891;SDS011;70343;51.530;5.050;2024-01-30T05:24:35;9.63;;;5.78;;
80891;SDS011;70343;51.530;5.050;2024-01-30T05:27:01;8.52;;;5.25;;
80891;SDS011;70343;51.530;5.050;2024-01-30T05:29:27;10.02;;;6.65;;
80891;SDS011;70343;51.530;5.050;2024-01-30T05:31:53;10.02;;;6.35;;
80891;SDS011;70343;51.530;5.050;2024-01-30T05:34:18;9.52;;;5.05;;
80891;SDS011;70343;51.530;5.050;2024-01-30T05:36:44;12.35;;;6.03;;
80891;SDS011;70343;51.530;5.050;2024-01-30T05:39:09;8.23;;;5.43;;
80891;SDS011;70343;51.530;5.050;2024-01-30T05:41:35;8.35;;;5.10;;
80891;SDS011;70343;51.530;5.050;2024-01-30T05:44:01;7.90;;;5.35;;
80891;SDS011;70343;51.530;5.050;2024-01-30T05:46:26;9.27;;;5.25;;
80891;SDS011;70343;51.530;5.050;2024-01-30T05:48:52;7.53;;;5.07;;
80891;SDS011;70343;51.530;5.050;2024-01-30T05:51:17;6.25;;;4.55;;
80891;SDS011;70343;51.530;5.050;2024-01-30T05:53:43;6.47;;;4.82;;
80891;SDS011;70343;51.530;5.050;2024-01-30T05:56:09;8.70;;;5.07;;
80891;SDS011;70343;51.530;5.050;2024-01-30T05:58:34;7.30;;;5.13;;
80891;SDS011;70343;51.530;5.050;2024-01-30T06:01:00;7.65;;;5.05;;
80891;SDS011;70343;51.530;5.050;2024-01-30T06:03:25;5.35;;;4.78;;
80891;SDS011;70343;51.530;5.050;2024-01-30T06:05:51;8.68;;;5.57;;
80891;SDS011;70343;51.530;5.050;2024-01-30T06:08:17;8.80;;;6.30;;
80891;SDS011;70343;51.530;5.050;2024-01-30T06:10:43;7.07;;;5.10;;
80891;SDS011;70343;51.530;5.050;2024-01-30T06:13:08;7.75;;;4.80;;
80891;SDS011;70343;51.530;5.050;2024-01-30T06:15:34;9.55;;;5.25;;
80891;SDS011;70343;51.530;5.050;2024-01-30T06:17:59;9.35;;;5.03;;
80891;SDS011;70343;51.530;5.050;2024-01-30T06:20:25;8.77;;;5.10;;
80891;SDS011;70343;51.530;5.050;2024-01-30T06:22:50;8.43;;;5.25;;
80891;SDS011;70343;51.530;5.050;2024-01-30T06:25:16;10.13;;;4.93;;
80891;SDS011;70343;51.530;5.050;2024-01-30T06:27:42;9.48;;;5.32;;
80891;SDS011;70343;51.530;5.050;2024-01-30T06:30:08;8.45;;;4.80;;
80891;SDS011;70343;51.530;5.050;2024-01-30T06:32:35;8.95;;;4.80;;
80891;SDS011;70343;51.530;5.050;2024-01-30T06:35:01;8.52;;;5.38;;
80891;SDS011;70343;51.530;5.050;2024-01-30T06:37:27;6.93;;;4.95;;
80891;SDS011;70343;51.530;5.050;2024-01-30T06:39:52;8.82;;;5.05;;
80891;SDS011;70343;51.530;5.050;2024-01-30T06:42:18;9.27;;;4.68;;
80891;SDS011;70343;51.530;5.050;2024-01-30T06:44:44;7.55;;;4.47;;
80891;SDS011;70343;51.530;5.050;2024-01-30T06:47:09;5.70;;;3.65;;
80891;SDS011;70343;51.530;5.050;2024-01-30T06:49:35;9.85;;;5.20;;
80891;SDS011;70343;51.530;5.050;2024-01-30T06:52:04;7.85;;;5.68;;
80891;SDS011;70343;51.530;5.050;2024-01-30T06:54:30;11.70;;;5.30;;
80891;SDS011;70343;51.530;5.050;2024-01-30T06:56:56;13.48;;;5.38;;
80891;SDS011;70343;51.530;5.050;2024-01-30T06:59:22;9.55;;;4.45;;
80891;SDS011;70343;51.530;5.050;2024-01-30T07:01:47;6.88;;;4.43;;
80891;SDS011;70343;51.530;5.050;2024-01-30T07:04:13;8.23;;;5.28;;
80891;SDS011;70343;51.530;5.050;2024-01-30T07:06:38;9.15;;;5.30;;
80891;SDS011;70343;51.530;5.050;2024-01-30T07:09:04;7.03;;;5.10;;
80891;SDS011;70343;51.530;5.050;2024-01-30T07:11:30;9.05;;;5.47;;
80891;SDS011;70343;51.530;5.050;2024-01-30T07:13:56;9.02;;;4.57;;
80891;SDS011;70343;51.530;5.050;2024-01-30T07:16:21;10.73;;;5.20;;
80891;SDS011;70343;51.530;5.050;2024-01-30T07:18:47;9.25;;;5.10;;
80891;SDS011;70343;51.530;5.050;2024-01-30T07:21:13;8.02;;;4.53;;
80891;SDS011;70343;51.530;5.050;2024-01-30T07:23:38;9.50;;;5.15;;
80891;SDS011;70343;51.530;5.050;2024-01-30T07:26:07;9.15;;;5.13;;
80891;SDS011;70343;51.530;5.050;2024-01-30T07:28:33;7.65;;;5.30;;
80891;SDS011;70343;51.530;5.050;2024-01-30T07:30:59;10.05;;;5.80;;
80891;SDS011;70343;51.530;5.050;2024-01-30T07:33:26;11.52;;;4.80;;
80891;SDS011;70343;51.530;5.050;2024-01-30T07:35:54;10.27;;;5.03;;
80891;SDS011;70343;51.530;5.050;2024-01-30T07:38:20;9.20;;;5.53;;
80891;SDS011;70343;51.530;5.050;2024-01-30T07:40:45;7.63;;;5.13;;
80891;SDS011;70343;51.530;5.050;2024-01-30T07:43:11;8.23;;;5.30;;
80891;SDS011;70343;51.530;5.050;2024-01-30T07:45:37;9.85;;;4.70;;
80891;SDS011;70343;51.530;5.050;2024-01-30T07:48:04;7.72;;;6.00;;
80891;SDS011;70343;51.530;5.050;2024-01-30T07:50:30;10.27;;;6.55;;
80891;SDS011;70343;51.530;5.050;2024-01-30T07:52:56;10.85;;;5.35;;
80891;SDS011;70343;51.530;5.050;2024-01-30T07:55:22;9.70;;;6.00;;
80891;SDS011;70343;51.530;5.050;2024-01-30T07:57:53;9.27;;;5.63;;
80891;SDS011;70343;51.530;5.050;2024-01-30T08:00:20;7.75;;;5.05;;
80891;SDS011;70343;51.530;5.050;2024-01-30T08:02:46;9.95;;;5.68;;
80891;SDS011;70343;51.530;5.050;2024-01-30T08:05:11;9.10;;;5.93;;
80891;SDS011;70343;51.530;5.050;2024-01-30T08:07:37;9.63;;;4.90;;
80891;SDS011;70343;51.530;5.050;2024-01-30T08:10:02;11.43;;;5.38;;
80891;SDS011;70343;51.530;5.050;2024-01-30T08:12:28;9.32;;;5.07;;
80891;SDS011;70343;51.530;5.050;2024-01-30T08:14:54;9.10;;;5.40;;
80891;SDS011;70343;51.530;5.050;2024-01-30T08:17:19;11.05;;;4.80;;
80891;SDS011;70343;51.530;5.050;2024-01-30T08:19:45;9.35;;;5.72;;
80891;SDS011;70343;51.530;5.050;2024-01-30T08:22:11;9.15;;;5.93;;
80891;SDS011;70343;51.530;5.050;2024-01-30T08:24:37;7.63;;;5.07;;
80891;SDS011;70343;51.530;5.050;2024-01-30T08:27:03;9.10;;;5.60;;
80891;SDS011;70343;51.530;5.050;2024-01-30T08:29:30;8.48;;;5.00;;
80891;SDS011;70343;51.530;5.050;2024-01-30T08:31:55;11.65;;;5.95;;
80891;SDS011;70343;51.530;5.050;2024-01-30T08:34:21;9.32;;;6.32;;
80891;SDS011;70343;51.530;5.050;2024-01-30T08:36:46;9.85;;;5.65;;
80891;SDS011;70343;51.530;5.050;2024-01-30T08:39:13;9.85;;;6.00;;
80891;SDS011;70343;51.530;5.050;2024-01-30T08:41:38;9.63;;;5.45;;
80891;SDS011;70343;51.530;5.050;2024-01-30T08:44:04;8.57;;;5.85;;
80891;SDS011;70343;51.530;5.050;2024-01-30T08:46:29;9.90;;;6.40;;
80891;SDS011;70343;51.530;5.050;2024-01-30T08:48:55;8.38;;;6.20;;
80891;SDS011;70343;51.530;5.050;2024-01-30T08:51:21;10.45;;;6.40;;
80891;SDS011;70343;51.530;5.050;2024-01-30T08:53:47;8.10;;;5.38;;
80891;SDS011;70343;51.530;5.050;2024-01-30T08:56:12;5.70;;;4.20;;
80891;SDS011;70343;51.530;5.050;2024-01-30T08:58:38;9.98;;;5.68;;
80891;SDS011;70343;51.530;5.050;2024-01-30T09:01:04;9.23;;;6.07;;
80891;SDS011;70343;51.530;5.050;2024-01-30T09:03:31;10.75;;;5.90;;
80891;SDS011;70343;51.530;5.050;2024-01-30T09:05:56;7.15;;;4.57;;
80891;SDS011;70343;51.530;5.050;2024-01-30T09:08:22;12.30;;;6.97;;
80891;SDS011;70343;51.530;5.050;2024-01-30T09:10:48;8.82;;;5.93;;
80891;SDS011;70343;51.530;5.050;2024-01-30T09:13:15;13.00;;;5.93;;
80891;SDS011;70343;51.530;5.050;2024-01-30T09:15:41;9.25;;;5.07;;
80891;SDS011;70343;51.530;5.050;2024-01-30T09:18:07;10.18;;;5.50;;
80891;SDS011;70343;51.530;5.050;2024-01-30T09:20:32;10.88;;;6.50;;
80891;SDS011;70343;51.530;5.050;2024-01-30T09:22:58;8.73;;;5.65;;
80891;SDS011;70343;51.530;5.050;2024-01-30T09:25:24;9.88;;;5.75;;
80891;SDS011;70343;51.530;5.050;2024-01-30T09:27:49;11.38;;;6.20;;
80891;SDS011;70343;51.530;5.050;2024-01-30T09:30:15;8.02;;;5.82;;
80891;SDS011;70343;51.530;5.050;2024-01-30T09:32:40;10.30;;;5.97;;
80891;SDS011;70343;51.530;5.050;2024-01-30T09:35:06;10.10;;;5.47;;
80891;SDS011;70343;51.530;5.050;2024-01-30T09:37:32;12.27;;;6.47;;
80891;SDS011;70343;51.530;5.050;2024-01-30T09:39:57;12.10;;;5.72;;
80891;SDS011;70343;51.530;5.050;2024-01-30T09:42:35;9.75;;;5.40;;
80891;SDS011;70343;51.530;5.050;2024-01-30T09:45:05;11.02;;;7.47;;
80891;SDS011;70343;51.530;5.050;2024-01-30T09:47:40;12.50;;;6.35;;
80891;SDS011;70343;51.530;5.050;2024-01-30T09:50:10;14.88;;;7.30;;
80891;SDS011;70343;51.530;5.050;2024-01-30T09:52:37;10.75;;;6.75;;
80891;SDS011;70343;51.530;5.050;2024-01-30T09:55:03;9.60;;;5.60;;
80891;SDS011;70343;51.530;5.050;2024-01-30T09:57:29;9.85;;;6.30;;
80891;SDS011;70343;51.530;5.050;2024-01-30T09:59:55;15.32;;;7.30;;
80891;SDS011;70343;51.530;5.050;2024-01-30T10:02:21;11.40;;;7.05;;
80891;SDS011;70343;51.530;5.050;2024-01-30T10:04:50;11.43;;;5.97;;
80891;SDS011;70343;51.530;5.050;2024-01-30T10:07:20;11.80;;;6.88;;
80891;SDS011;70343;51.530;5.050;2024-01-30T10:09:46;11.80;;;5.63;;
80891;SDS011;70343;51.530;5.050;2024-01-30T10:12:12;11.57;;;6.30;;
80891;SDS011;70343;51.530;5.050;2024-01-30T10:14:39;8.93;;;5.90;;
80891;SDS011;70343;51.530;5.050;2024-01-30T10:17:07;11.32;;;7.15;;
80891;SDS011;70343;51.530;5.050;2024-01-30T10:19:33;14.32;;;6.78;;
80891;SDS011;70343;51.530;5.050;2024-01-30T10:22:02;11.57;;;6.10;;
80891;SDS011;70343;51.530;5.050;2024-01-30T10:24:28;15.27;;;6.10;;
80891;SDS011;70343;51.530;5.050;2024-01-30T10:26:57;17.50;;;7.20;;
80891;SDS011;70343;51.530;5.050;2024-01-30T10:29:22;10.77;;;5.95;;
80891;SDS011;70343;51.530;5.050;2024-01-30T10:32:00;12.70;;;6.35;;
80891;SDS011;70343;51.530;5.050;2024-01-30T10:34:27;9.45;;;5.53;;
80891;SDS011;70343;51.530;5.050;2024-01-30T10:37:09;9.40;;;6.70;;
80891;SDS011;70343;51.530;5.050;2024-01-30T10:39:41;12.43;;;4.80;;
80891;SDS011;70343;51.530;5.050;2024-01-30T10:42:11;11.48;;;5.40;;
80891;SDS011;70343;51.530;5.050;2024-01-30T10:44:49;10.15;;;6.03;;
80891;SDS011;70343;51.530;5.050;2024-01-30T10:47:28;8.07;;;4.68;;
80891;SDS011;70343;51.530;5.050;2024-01-30T10:49:55;5.90;;;3.22;;
80891;SDS011;70343;51.530;5.050;2024-01-30T10:52:22;12.35;;;5.82;;
80891;SDS011;70343;51.530;5.050;2024-01-30T10:54:50;7.35;;;4.40;;
80891;SDS011;70343;51.530;5.050;2024-01-30T10:57:17;6.88;;;4.45;;
80891;SDS011;70343;51.530;5.050;2024-01-30T10:59:43;9.77;;;4.32;;
80891;SDS011;70343;51.530;5.050;2024-01-30T11:02:09;6.45;;;4.55;;
80891;SDS011;70343;51.530;5.050;2024-01-30T11:04:40;8.00;;;3.90;;
80891;SDS011;70343;51.530;5.050;2024-01-30T11:07:16;9.13;;;5.47;;
80891;SDS011;70343;51.530;5.050;2024-01-30T11:09:52;6.97;;;4.45;;
80891;SDS011;70343;51.530;5.050;2024-01-30T11:12:22;5.70;;;3.85;;
80891;SDS011;70343;51.530;5.050;2024-01-30T11:14:49;10.43;;;4.88;;
80891;SDS011;70343;51.530;5.050;2024-01-30T11:17:15;11.32;;;6.03;;
80891;SDS011;70343;51.530;5.050;2024-01-30T11:19:41;6.22;;;3.95;;
80891;SDS011;70343;51.530;5.050;2024-01-30T11:22:07;6.75;;;4.13;;
80891;SDS011;70343;51.530;5.050;2024-01-30T11:24:39;6.22;;;4.50;;
80891;SDS011;70343;51.530;5.050;2024-01-30T11:27:09;6.18;;;3.88;;
80891;SDS011;70343;51.530;5.050;2024-01-30T11:29:37;9.15;;;4.47;;
80891;SDS011;70343;51.530;5.050;2024-01-30T11:32:02;5.95;;;4.65;;
80891;SDS011;70343;51.530;5.050;2024-01-30T11:34:28;4.43;;;3.83;;
80891;SDS011;70343;51.530;5.050;2024-01-30T11:36:57;8.25;;;4.53;;
80891;SDS011;70343;51.530;5.050;2024-01-30T11:39:31;6.20;;;2.88;;
80891;SDS011;70343;51.530;5.050;2024-01-30T11:44:23;6.90;;;2.75;;
80891;SDS011;70343;51.530;5.050;2024-01-30T11:46:49;6.95;;;3.78;;
80891;SDS011;70343;51.530;5.050;2024-01-30T11:49:16;4.22;;;2.55;;
80891;SDS011;70343;51.530;5.050;2024-01-30T11:51:42;7.00;;;2.55;;
80891;SDS011;70343;51.530;5.050;2024-01-30T11:54:10;4.15;;;2.25;;
80891;SDS011;70343;51.530;5.050;2024-01-30T11:56:36;4.47;;;2.40;;
80891;SDS011;70343;51.530;5.050;2024-01-30T11:59:02;1.80;;;1.70;;
80891;SDS011;70343;51.530;5.050;2024-01-30T12:01:27;2.88;;;1.63;;
80891;SDS011;70343;51.530;5.050;2024-01-30T12:03:53;2.08;;;1.60;;
80891;SDS011;70343;51.530;5.050;2024-01-30T12:06:18;4.43;;;1.63;;
80891;SDS011;70343;51.530;5.050;2024-01-30T12:09:00;1.10;;;1.00;;
80891;SDS011;70343;51.530;5.050;2024-01-30T12:11:29;3.25;;;1.05;;
80891;SDS011;70343;51.530;5.050;2024-01-30T12:13:55;2.20;;;1.25;;
80891;SDS011;70343;51.530;5.050;2024-01-30T12:16:21;2.67;;;0.93;;
80891;SDS011;70343;51.530;5.050;2024-01-30T12:18:47;2.63;;;1.27;;
80891;SDS011;70343;51.530;5.050;2024-01-30T12:21:15;2.25;;;0.98;;
80891;SDS011;70343;51.530;5.050;2024-01-30T12:23:42;3.00;;;1.02;;
80891;SDS011;70343;51.530;5.050;2024-01-30T12:26:08;0.93;;;0.70;;
80891;SDS011;70343;51.530;5.050;2024-01-30T12:28:33;1.73;;;0.95;;
80891;SDS011;70343;51.530;5.050;2024-01-30T12:31:02;2.63;;;1.15;;
80891;SDS011;70343;51.530;5.050;2024-01-30T12:33:29;2.22;;;1.45;;
80891;SDS011;70343;51.530;5.050;2024-01-30T12:35:55;1.52;;;1.00;;
80891;SDS011;70343;51.530;5.050;2024-01-30T12:38:22;2.10;;;1.20;;
80891;SDS011;70343;51.530;5.050;2024-01-30T12:40:50;1.40;;;1.20;;
80891;SDS011;70343;51.530;5.050;2024-01-30T12:43:19;3.05;;;1.10;;
80891;SDS011;70343;51.530;5.050;2024-01-30T12:45:44;1.08;;;1.00;;
80891;SDS011;70343;51.530;5.050;2024-01-30T12:48:10;4.00;;;1.95;;
80891;SDS011;70343;51.530;5.050;2024-01-30T12:50:35;1.88;;;0.98;;
80891;SDS011;70343;51.530;5.050;2024-01-30T12:53:01;3.08;;;0.90;;
80891;SDS011;70343;51.530;5.050;2024-01-30T12:55:26;3.65;;;1.10;;
80891;SDS011;70343;51.530;5.050;2024-01-30T12:57:54;1.83;;;1.02;;
80891;SDS011;70343;51.530;5.050;2024-01-30T13:00:20;2.08;;;1.02;;
80891;SDS011;70343;51.530;5.050;2024-01-30T13:02:47;2.20;;;1.25;;
80891;SDS011;70343;51.530;5.050;2024-01-30T13:05:13;2.40;;;0.90;;
80891;SDS011;70343;51.530;5.050;2024-01-30T13:07:38;2.08;;;0.95;;
80891;SDS011;70343;51.530;5.050;2024-01-30T13:10:04;1.17;;;1.00;;
80891;SDS011;70343;51.530;5.050;2024-01-30T13:12:30;1.85;;;1.00;;
80891;SDS011;70343;51.530;5.050;2024-01-30T13:14:57;1.85;;;0.95;;
80891;SDS011;70343;51.530;5.050;2024-01-30T13:17:23;1.83;;;0.95;;
80891;SDS011;70343;51.530;5.050;2024-01-30T13:19:48;3.53;;;0.70;;
80891;SDS011;70343;51.530;5.050;2024-01-30T13:22:15;2.00;;;0.70;;
80891;SDS011;70343;51.530;5.050;2024-01-30T13:24:41;2.28;;;0.77;;
80891;SDS011;70343;51.530;5.050;2024-01-30T13:27:07;1.02;;;0.70;;
80891;SDS011;70343;51.530;5.050;2024-01-30T13:29:33;1.77;;;0.60;;
80891;SDS011;70343;51.530;5.050;2024-01-30T13:31:59;3.85;;;1.00;;
80891;SDS011;70343;51.530;5.050;2024-01-30T13:34:24;2.30;;;0.60;;
80891;SDS011;70343;51.530;5.050;2024-01-30T13:36:50;2.25;;;0.68;;
80891;SDS011;70343;51.530;5.050;2024-01-30T13:39:16;2.08;;;0.93;;
80891;SDS011;70343;51.530;5.050;2024-01-30T13:41:41;0.77;;;0.40;;
80891;SDS011;70343;51.530;5.050;2024-01-30T13:44:07;1.65;;;0.52;;
80891;SDS011;70343;51.530;5.050;2024-01-30T13:46:34;2.50;;;0.85;;
80891;SDS011;70343;51.530;5.050;2024-01-30T13:49:00;1.75;;;0.65;;
80891;SDS011;70343;51.530;5.050;2024-01-30T13:51:26;2.38;;;0.77;;
80891;SDS011;70343;51.530;5.050;2024-01-30T13:53:52;1.55;;;0.55;;
80891;SDS011;70343;51.530;5.050;2024-01-30T13:56:19;3.63;;;0.77;;
80891;SDS011;70343;51.530;5.050;2024-01-30T14:01:16;4.70;;;1.48;;
80891;SDS011;70343;51.530;5.050;2024-01-30T14:03:41;4.82;;;1.70;;
80891;SDS011;70343;51.530;5.050;2024-01-30T14:06:07;4.85;;;2.05;;
80891;SDS011;70343;51.530;5.050;2024-01-30T14:08:33;7.43;;;2.25;;
80891;SDS011;70343;51.530;5.050;2024-01-30T14:10:58;4.10;;;2.53;;
80891;SDS011;70343;51.530;5.050;2024-01-30T14:13:24;8.13;;;3.17;;
80891;SDS011;70343;51.530;5.050;2024-01-30T14:15:51;6.28;;;2.70;;
80891;SDS011;70343;51.530;5.050;2024-01-30T14:18:17;4.85;;;2.92;;
80891;SDS011;70343;51.530;5.050;2024-01-30T14:20:42;5.75;;;3.28;;
80891;SDS011;70343;51.530;5.050;2024-01-30T14:23:08;7.85;;;3.38;;
80891;SDS011;70343;51.530;5.050;2024-01-30T14:25:33;9.27;;;3.33;;
80891;SDS011;70343;51.530;5.050;2024-01-30T14:27:59;9.80;;;3.45;;
80891;SDS011;70343;51.530;5.050;2024-01-30T14:30:24;7.25;;;3.38;;
80891;SDS011;70343;51.530;5.050;2024-01-30T14:32:50;5.30;;;2.70;;
80891;SDS011;70343;51.530;5.050;2024-01-30T14:35:15;5.13;;;2.67;;
80891;SDS011;70343;51.530;5.050;2024-01-30T14:37:41;4.72;;;2.63;;
80891;SDS011;70343;51.530;5.050;2024-01-30T14:40:07;4.82;;;2.55;;
80891;SDS011;70343;51.530;5.050;2024-01-30T14:42:33;4.50;;;2.63;;